Startpagina
METAR-TAF:

METAR-TAF

Vliegvelden :

Flughafen Wien-Schwechat

Wenen, Oostenrijk

breedte: 48-07N, lengte: 016-34E, hoogte: 183 m

Actueel weer

Dit bericht is 16 minuten geleden gemaakt, om 19:50 UTC
Wind 4 kt uit het oostzuidoosten, variërend tussen het oostnoordoosten en het zuidzuidoosten
Temperatuur 14°C
Vochtigheid 58%
Druk 1021 hPa
Zicht 10 km of meer
geen wolken onder 1500 m en geen cumulonimbus

METAR: LOWW 151950Z 11004KT 060V150 CAVOK 14/06 Q1021 NOSIG

Tijdstip: 22:06 (20:06 UTC)

Verwachting

Dit bericht is 2 uur en het 51 minuten geleden gemaakt, om 17:15 UTC
Verwachting geldig van 15 om 18 UTC tot 16 om 24 UTC
Wind 8 kt uit het zuidoosten
Zicht 10 km of meer
geen wolken onder 1500 m en geen cumulonimbus
Tijdelijke
van 16 om 09 UTC tot 16 om 16 UTC
Wind 15 kt uit het zuidoosten

TAF: LOWW 151715Z 1518/1624 14008KT CAVOK TX18/1612Z TN12/1602Z TEMPO 1609/1616 14015KT

Waarnemingen en weersverwachtingen van meer dan 4000 vliegvelden (METAR en TAF).

De beschikbare stations zijn de gele en rode punten op de kaart.

Ga met uw muis naar het station om de naam te zien.

Klik dan om waarnemingen en weersverwachtingen te zien.

kaart wijzigen: klik op de groene knoppen met een zwart kruis om in te zoomen, op de groene knop met een streepje om uit te zoomen of op de groene pijlen voor aangrenzende kaarten.


METAR-TAF: